Gillam, Gillam Airport (CYGX)

NameGillam Airport
CityGillam
CountryCanada
ICAOCYGX
IATAYGX
Altitude145 m
CoordinatesGoogle Map
Live Air TrafficLiveATC.net
METARCYGX 151600Z 36014KT 15SM -SN OVC015 01/M01 A3005 RMK SC8 SLP188
2019-10-15 16:00:00 Wind: North (360°) 7.2 m/s - Visibility: 24140.1 m - Weather: Light Snow - Temperature: 1 °C - Dew point: -1 °C - Humidity: 86.7% - Pressure: 1017.61 hPa

Sorry, no flights used the airport in this database.